GIB weather

Gibraltar Airport
Gibraltar, Gibraltar

Public forecast

Using degrees Celsius for public forecast. Weather courtesy of forecast.io.

METAR (pilot weather report)

Retrieved 2019/05/24 14:50 UTC (22 minutes ago):

LXGB 241450Z 25014KT CAVOK 24/11 Q1011 BLU NOSIG

TAF (pilot weather forecast)

Forecast is more than 12 hours old.

Retrieved 2019/05/20 18:00 UTC (4 days ago):

TAF TAF LXGB 201634Z 2018/2222 26012KT CAVOK